createdAt,value
2022-11-17T11:22:34.072Z,98605.69
2022-11-17T11:25:09.916Z,98613.44
2022-11-17T11:28:04.606Z,98606.78
2022-11-17T11:30:42.400Z,98608.13
2022-11-17T11:33:56.334Z,98613.72
2022-11-17T11:36:32.626Z,98607.25
2022-11-17T11:39:04.036Z,98620.97
2022-11-17T11:41:47.805Z,98613.22
2022-11-17T11:44:41.719Z,98616.63
2022-11-17T11:47:33.359Z,98620.50
2022-11-17T11:50:12.903Z,98617.88
2022-11-17T11:52:44.812Z,98619.53
2022-11-17T11:55:22.223Z,98629.53
2022-11-17T11:57:55.377Z,98625.06
2022-11-17T12:00:21.984Z,98629.84
2022-11-17T12:03:06.583Z,98639.63
2022-11-17T12:06:21.053Z,98640.22
2022-11-17T12:08:58.841Z,98634.75
2022-11-17T12:11:44.059Z,98651.13
2022-11-17T12:14:16.203Z,98641.72
2022-11-17T12:16:44.479Z,98643.72
2022-11-17T12:19:55.351Z,98641.66
2022-11-17T12:22:33.726Z,98640.22
2022-11-17T12:25:15.125Z,98645.66
2022-11-17T12:27:43.922Z,98640.38
2022-11-17T12:30:28.869Z,98643.22
2022-11-17T12:32:55.597Z,98635.47
2022-11-17T12:35:33.043Z,98639.44
2022-11-17T12:38:17.579Z,98652.84
2022-11-17T12:40:49.046Z,98648.56
2022-11-17T12:43:15.419Z,98648.31
2022-11-17T12:46:19.325Z,98649.28
2022-11-17T12:48:57.305Z,98659.53
2022-11-17T12:52:11.066Z,98654.56
2022-11-17T12:54:53.524Z,98660.00
2022-11-17T12:57:27.817Z,98653.38
2022-11-17T13:00:05.988Z,98659.75
2022-11-17T13:02:54.679Z,98662.47
2022-11-17T13:05:24.009Z,98661.38
2022-11-17T13:08:07.273Z,98658.47
2022-11-17T13:10:33.600Z,98658.25
2022-11-17T13:13:15.648Z,98654.13
2022-11-17T13:15:43.278Z,98666.00
2022-11-17T13:18:11.684Z,98666.84
2022-11-17T13:20:39.060Z,98667.88
2022-11-17T13:23:24.245Z,98669.97
2022-11-17T13:25:51.481Z,98670.03
2022-11-17T13:28:31.335Z,98661.31
2022-11-17T13:30:58.872Z,98653.47
2022-11-17T13:33:25.713Z,98660.66
2022-11-17T13:36:16.889Z,98670.69
2022-11-17T13:38:52.397Z,98670.31
2022-11-17T13:41:20.542Z,98664.34
2022-11-17T13:43:48.615Z,98673.78
2022-11-17T13:46:15.199Z,98662.25
2022-11-17T13:48:43.883Z,98680.69
2022-11-17T13:51:38.415Z,98677.50
2022-11-17T13:54:11.108Z,98678.53
2022-11-17T13:56:40.070Z,98669.31
2022-11-17T13:59:17.596Z,98684.91
2022-11-17T14:01:44.927Z,98679.56
2022-11-17T14:04:20.524Z,98673.88
2022-11-17T14:07:01.212Z,98673.00
2022-11-17T14:09:30.653Z,98676.44
2022-11-17T14:12:01.635Z,98676.97
2022-11-17T14:14:35.971Z,98676.69
2022-11-17T14:17:22.098Z,98686.19
2022-11-17T14:19:48.623Z,98690.69
2022-11-17T14:22:22.283Z,98684.59
2022-11-17T14:24:51.466Z,98687.72
2022-11-17T14:27:26.960Z,98700.13
2022-11-17T14:29:53.286Z,98688.22
2022-11-17T14:32:19.600Z,98684.34
2022-11-17T14:34:45.958Z,98690.13
2022-11-17T14:37:12.540Z,98693.81
2022-11-17T14:39:38.958Z,98692.53
2022-11-17T14:42:05.457Z,98696.44
2022-11-17T14:44:31.854Z,98695.88
2022-11-17T14:46:58.200Z,98701.72
2022-11-17T14:49:24.725Z,98694.84
2022-11-17T14:51:51.157Z,98698.94
2022-11-17T14:54:17.556Z,98691.81
2022-11-17T14:56:43.935Z,98697.34
2022-11-17T14:59:11.064Z,98698.41
2022-11-17T15:01:38.551Z,98707.09
2022-11-17T15:04:27.348Z,98698.41
2022-11-17T15:06:53.024Z,98707.59
2022-11-17T15:09:20.513Z,98706.47
2022-11-17T15:11:47.517Z,98704.88
2022-11-17T15:14:14.438Z,98710.13
2022-11-17T15:16:41.074Z,98716.94
2022-11-17T15:19:07.409Z,98718.63
2022-11-17T15:21:33.967Z,98720.13
2022-11-17T15:24:03.290Z,98722.31
2022-11-17T15:26:29.698Z,98720.13
2022-11-17T15:28:57.833Z,98724.31
2022-11-17T15:31:24.299Z,98724.38
2022-11-17T15:33:50.660Z,98731.66
2022-11-17T15:36:20.039Z,98728.63
2022-11-17T15:38:47.630Z,98732.84
2022-11-17T15:41:15.066Z,98734.94
2022-11-17T15:43:43.305Z,98736.97
2022-11-17T15:46:12.083Z,98737.41
2022-11-17T15:48:42.860Z,98744.88
2022-11-17T15:51:15.559Z,98753.31
2022-11-17T15:53:43.265Z,98749.88
2022-11-17T15:56:15.037Z,98753.88
2022-11-17T15:58:42.563Z,98755.25
2022-11-17T16:01:10.575Z,98757.88
2022-11-17T16:03:37.140Z,98766.09
2022-11-17T16:06:03.862Z,98764.03
2022-11-17T16:08:31.200Z,98762.19
2022-11-17T16:10:58.024Z,98766.25
2022-11-17T16:13:24.400Z,98772.19
2022-11-17T16:15:51.225Z,98778.75
2022-11-17T16:18:17.732Z,98781.63
2022-11-17T16:20:44.132Z,98787.47
2022-11-17T16:23:10.553Z,98786.56
2022-11-17T16:25:46.306Z,98782.44
2022-11-17T16:28:13.582Z,98787.47
2022-11-17T16:30:41.214Z,98789.19
2022-11-17T16:33:16.411Z,98790.34
2022-11-17T16:35:42.911Z,98800.19
2022-11-17T16:38:14.664Z,98791.69
2022-11-17T16:40:41.412Z,98790.56
2022-11-17T16:43:11.765Z,98793.69
2022-11-17T16:45:44.564Z,98791.06
2022-11-17T16:48:12.334Z,98796.81
2022-11-17T16:50:40.411Z,98797.38
2022-11-17T16:53:07.090Z,98802.88
2022-11-17T16:55:37.456Z,98796.81
2022-11-17T16:58:05.857Z,98807.09
2022-11-17T17:00:34.678Z,98807.34
2022-11-17T17:03:01.857Z,98800.25
2022-11-17T17:05:29.417Z,98809.91
2022-11-17T17:07:56.979Z,98809.34
2022-11-17T17:10:24.061Z,98807.63
2022-11-17T17:12:50.419Z,98808.59
2022-11-17T17:15:16.929Z,98810.56
2022-11-17T17:17:43.325Z,98816.41
2022-11-17T17:20:10.091Z,98813.91
2022-11-17T17:22:36.429Z,98818.16
2022-11-17T17:25:03.675Z,98817.81
2022-11-17T17:27:30.847Z,98817.34
2022-11-17T17:29:57.376Z,98819.25
2022-11-17T17:32:23.744Z,98817.78
2022-11-17T17:34:50.147Z,98829.25
2022-11-17T17:37:16.814Z,98828.94
2022-11-17T17:39:43.326Z,98819.31
2022-11-17T17:42:09.672Z,98828.94
2022-11-17T17:44:36.120Z,98836.38
2022-11-17T17:47:02.518Z,98834.47
2022-11-17T17:49:28.906Z,98841.22
2022-11-17T17:51:55.333Z,98846.28
2022-11-17T17:54:23.951Z,98848.56
2022-11-17T17:56:50.350Z,98855.13
2022-11-17T17:59:17.641Z,98858.88
2022-11-17T18:01:46.182Z,98852.81
2022-11-17T18:04:16.178Z,98851.69
2022-11-17T18:06:48.667Z,98865.88
2022-11-17T18:09:18.772Z,98865.53
2022-11-17T18:11:47.804Z,98865.66
2022-11-17T18:14:14.173Z,98870.13
2022-11-17T18:16:40.745Z,98864.75
2022-11-17T18:19:08.808Z,98862.09
2022-11-17T18:21:35.791Z,98867.28
2022-11-17T18:24:03.174Z,98874.84
2022-11-17T18:26:35.443Z,98876.91
2022-11-17T18:29:04.936Z,98875.63
2022-11-17T18:31:33.576Z,98887.34
2022-11-17T18:34:02.892Z,98878.88
2022-11-17T18:36:29.734Z,98878.06
2022-11-17T18:38:58.442Z,98885.38
2022-11-17T18:41:26.833Z,98885.81
2022-11-17T18:43:54.897Z,98889.63
2022-11-17T18:46:22.857Z,98884.56
2022-11-17T18:48:51.822Z,98889.84
2022-11-17T18:51:27.595Z,98892.25
2022-11-17T18:53:58.824Z,98900.16
2022-11-17T18:56:27.443Z,98898.78
2022-11-17T18:58:54.344Z,98905.72
2022-11-17T19:01:23.114Z,98900.25
2022-11-17T19:03:52.380Z,98909.75
2022-11-17T19:06:21.071Z,98909.41
2022-11-17T19:08:48.229Z,98901.16
2022-11-17T19:11:16.239Z,98915.25
2022-11-17T19:13:43.267Z,98911.34
2022-11-17T19:16:32.454Z,98912.38
2022-11-17T19:18:59.283Z,98914.41
2022-11-17T19:21:30.812Z,98922.09
2022-11-17T19:23:59.564Z,98919.22
2022-11-17T19:26:28.872Z,98922.66
2022-11-17T19:28:57.076Z,98930.41
2022-11-17T19:31:24.130Z,98931.22
2022-11-17T19:33:50.906Z,98936.47
2022-11-17T19:36:22.526Z,98944.03
2022-11-17T19:38:50.772Z,98947.81
2022-11-17T19:41:25.742Z,98944.25
2022-11-17T19:43:54.171Z,98949.28
2022-11-17T19:46:21.414Z,98953.50
2022-11-17T19:48:47.815Z,98953.06
2022-11-17T19:51:29.323Z,98955.94
2022-11-17T19:53:58.516Z,98968.63
2022-11-17T19:56:25.700Z,98966.91
2022-11-17T19:58:53.627Z,98972.81
2022-11-17T20:01:22.683Z,98974.19
2022-11-17T20:03:49.860Z,98982.31
2022-11-17T20:06:18.916Z,98977.84
2022-11-17T20:08:46.286Z,98980.59
2022-11-17T20:11:21.227Z,98984.81
2022-11-17T20:13:48.210Z,98988.25
2022-11-17T20:16:19.505Z,98991.88
2022-11-17T20:18:50.088Z,98996.25
2022-11-17T20:21:16.846Z,98998.38
2022-11-17T20:23:43.648Z,99007.31
2022-11-17T20:26:24.677Z,98999.56
2022-11-17T20:28:52.333Z,99008.34
2022-11-17T20:31:26.549Z,99012.44
2022-11-17T20:33:59.412Z,99020.47
2022-11-17T20:36:27.332Z,99014.50
2022-11-17T20:38:59.210Z,99023.50
2022-11-17T20:41:26.260Z,99015.63
2022-11-17T20:43:57.356Z,99022.22
2022-11-17T20:46:24.796Z,99021.53
2022-11-17T20:48:51.881Z,99024.25
2022-11-17T20:51:23.354Z,99025.72
2022-11-17T20:53:50.376Z,99027.88
2022-11-17T20:56:17.659Z,99034.19
2022-11-17T20:58:44.790Z,99041.91
2022-11-17T21:01:16.682Z,99044.91
2022-11-17T21:03:45.169Z,99045.47
2022-11-17T21:06:12.738Z,99042.91
2022-11-17T21:08:41.188Z,99052.06
2022-11-17T21:11:10.651Z,99051.34
2022-11-17T21:13:37.759Z,99059.81
2022-11-17T21:16:14.803Z,99065.06
2022-11-17T21:18:48.201Z,99066.06
2022-11-17T21:21:14.967Z,99069.00
2022-11-17T21:23:42.815Z,99069.28
2022-11-17T21:26:11.363Z,99063.78
2022-11-17T21:28:38.316Z,99071.50
2022-11-17T21:31:11.482Z,99068.88
2022-11-17T21:33:38.461Z,99073.66
2022-11-17T21:36:13.638Z,99076.25
2022-11-17T21:38:40.425Z,99086.16
2022-11-17T21:41:12.078Z,99084.59
2022-11-17T21:43:40.203Z,99088.03
2022-11-17T21:46:35.038Z,99083.03
2022-11-17T21:49:02.274Z,99082.59
2022-11-17T21:51:33.883Z,99083.78
2022-11-17T21:54:02.468Z,99086.78
2022-11-17T21:56:29.176Z,99090.66
2022-11-17T21:58:57.146Z,99086.16
2022-11-17T22:01:24.479Z,99090.94
2022-11-17T22:03:51.123Z,99090.44
2022-11-17T22:06:20.451Z,99080.97
2022-11-17T22:08:47.476Z,99082.53
2022-11-17T22:11:34.923Z,99082.94
2022-11-17T22:14:07.505Z,99080.91
2022-11-17T22:16:36.053Z,99094.47
2022-11-17T22:19:02.992Z,99091.59
2022-11-17T22:21:29.638Z,99087.28
2022-11-17T22:23:56.039Z,99091.41
2022-11-17T22:26:22.588Z,99091.13
2022-11-17T22:28:53.726Z,99092.22
2022-11-17T22:31:21.415Z,99100.75
2022-11-17T22:33:48.757Z,99111.25
2022-11-17T22:36:15.885Z,99105.41
2022-11-17T22:38:43.152Z,99120.31
2022-11-17T22:41:11.639Z,99131.44
2022-11-17T22:43:38.189Z,99126.25
2022-11-17T22:46:07.349Z,99121.22
2022-11-17T22:48:37.209Z,99128.69
2022-11-17T22:51:04.501Z,99126.63
2022-11-17T22:53:33.107Z,99135.91
2022-11-17T22:56:04.636Z,99127.00
2022-11-17T22:58:31.403Z,99127.16
2022-11-17T23:01:02.759Z,99129.75
2022-11-17T23:03:29.131Z,99138.22
2022-11-17T23:05:55.586Z,99144.63
2022-11-17T23:08:21.910Z,99139.38
2022-11-17T23:10:48.296Z,99143.19
2022-11-17T23:13:14.631Z,99139.97
2022-11-17T23:15:40.999Z,99137.94
2022-11-17T23:18:07.333Z,99137.56
2022-11-17T23:20:36.159Z,99146.41
2022-11-17T23:23:02.582Z,99139.31
2022-11-17T23:25:28.937Z,99138.69
2022-11-17T23:27:55.327Z,99149.19
2022-11-17T23:30:21.700Z,99145.75
2022-11-17T23:32:48.096Z,99141.91
2022-11-17T23:35:14.522Z,99143.94
2022-11-17T23:37:40.828Z,99153.81
2022-11-17T23:40:08.313Z,99154.22
2022-11-17T23:42:38.671Z,99156.28
2022-11-17T23:45:08.906Z,99153.22
2022-11-17T23:47:35.324Z,99157.66
2022-11-17T23:50:01.694Z,99162.69
2022-11-17T23:52:28.070Z,99161.91
2022-11-17T23:54:54.761Z,99169.00
2022-11-17T23:57:21.085Z,99169.81
2022-11-17T23:59:47.568Z,99169.13
